Time;durP1;ratioP1;P1;durP2;ratioP2;P2;SDS_P1;SDS_P2;PMS_P1;PMS_P2;Temp;Humidity;BMP_temperature;BMP_pressure;BME280_temperature;BME280_humidity;BME280_pressure;Samples;Min_cycle;Max_cycle;Signal;HPM_P1;HPM_P2
2022/07/21 00:00:03;;;;;;;3.80;3.50;;;;;;;21.51;56.18;95120.13;5056116;28;20875;-80
2022/07/21 00:02:30;;;;;;;5.53;4.13;;;;;;;21.44;56.18;95111.25;5056386;28;20530;-81
2022/07/21 00:04:57;;;;;;;3.83;3.53;;;;;;;21.44;56.60;95116.59;5055930;28;20787;-80
2022/07/21 00:07:24;;;;;;;3.90;3.50;;;;;;;21.39;56.58;95116.31;5056084;28;20492;-79
2022/07/21 00:09:50;;;;;;;3.53;3.33;;;;;;;21.33;56.94;95114.41;5056496;28;21123;-80
2022/07/21 00:12:17;;;;;;;4.60;4.30;;;;;;;21.39;56.88;95100.28;5055920;28;20453;-80
2022/07/21 00:14:45;;;;;;;5.77;4.20;;;;;;;21.35;57.37;95112.38;5037490;28;20508;-79
2022/07/21 00:17:12;;;;;;;4.53;4.13;;;;;;;21.36;57.15;95105.19;5055729;28;20453;-79
2022/07/21 00:19:39;;;;;;;3.80;3.50;;;;;;;21.30;57.31;95102.25;5037393;28;20449;-80
2022/07/21 00:22:06;;;;;;;4.47;3.80;;;;;;;21.39;57.76;95110.13;5055854;28;20457;-80
2022/07/21 00:24:33;;;;;;;4.03;3.73;;;;;;;21.37;58.06;95109.50;5055610;28;20450;-80
2022/07/21 00:26:59;;;;;;;3.93;3.63;;;;;;;21.45;58.13;95115.56;5056045;28;21532;-79
2022/07/21 00:29:26;;;;;;;3.73;3.53;;;;;;;21.50;58.02;95113.13;5055757;28;20496;-78
2022/07/21 00:31:54;;;;;;;7.93;3.70;;;;;;;21.57;58.13;95122.03;5055561;28;20785;-81
2022/07/21 00:34:21;;;;;;;4.30;3.90;;;;;;;21.41;57.99;95113.47;5055845;28;20441;-80
2022/07/21 00:36:48;;;;;;;4.47;4.17;;;;;;;21.44;58.55;95121.09;5036838;28;20452;-80
2022/07/21 00:39:15;;;;;;;3.97;3.57;;;;;;;21.46;58.48;95122.56;5055325;28;20457;-79
2022/07/21 00:41:42;;;;;;;4.67;4.23;;;;;;;21.41;58.40;95124.97;5055475;28;20486;-80
2022/07/21 00:44:20;;;;;;;5.00;4.50;;;;;;;21.53;58.65;95133.28;5055162;28;20438;-80
2022/07/21 00:46:47;;;;;;;6.03;4.43;;;;;;;21.57;59.25;95131.88;5055559;28;20488;-81
2022/07/21 00:49:15;;;;;;;4.70;4.30;;;;;;;21.60;59.12;95129.66;5055071;28;20494;-80
2022/07/21 00:51:42;;;;;;;4.73;3.97;;;;;;;21.56;59.05;95135.56;5055596;28;20461;-80
2022/07/21 00:54:08;;;;;;;5.00;4.50;;;;;;;21.44;58.29;95129.09;5055308;28;20450;-81
2022/07/21 00:56:36;;;;;;;6.37;4.20;;;;;;;21.27;58.84;95133.84;5055412;28;20442;-80
2022/07/21 00:59:03;;;;;;;5.10;4.00;;;;;;;21.16;59.67;95129.00;5055631;28;21084;-80
2022/07/21 01:01:30;;;;;;;7.97;4.10;;;;;;;21.14;60.08;95133.69;5055322;28;20838;-80
2022/07/21 01:03:57;;;;;;;4.20;3.90;;;;;;;21.10;59.67;95127.88;5055101;28;20464;-79
2022/07/21 01:06:26;;;;;;;4.77;4.37;;;;;;;21.12;60.00;95122.38;5055116;28;20505;-81
2022/07/21 01:08:53;;;;;;;4.60;4.30;;;;;;;21.12;58.70;95123.22;5054514;28;20996;-81
2022/07/21 01:11:21;;;;;;;4.07;3.67;;;;;;;21.13;59.34;95119.53;5054983;28;20453;-81
2022/07/21 01:13:48;;;;;;;4.93;4.53;;;;;;;21.12;58.87;95125.88;5055199;28;20836;-81
2022/07/21 01:16:15;;;;;;;4.13;3.83;;;;;;;21.16;58.99;95116.47;5054601;28;20921;-81
2022/07/21 01:18:42;;;;;;;4.23;3.83;;;;;;;21.18;59.13;95119.78;5054467;28;20492;-80
2022/07/21 01:21:28;;;;;;;5.23;4.40;;;;;;;21.17;59.56;95109.28;5054760;28;20457;-80
2022/07/21 01:23:55;;;;;;;8.10;4.40;;;;;;;21.11;59.44;95112.72;5054744;28;20449;-80
2022/07/21 01:26:22;;;;;;;4.73;4.37;;;;;;;21.08;59.25;95105.06;5019746;28;20932;-80
2022/07/21 01:28:49;;;;;;;4.50;4.20;;;;;;;20.97;60.23;95091.22;5054400;28;20876;-80
2022/07/21 01:31:15;;;;;;;12.10;4.97;;;;;;;20.91;60.27;95102.66;5053363;28;20499;-79
2022/07/21 01:33:42;;;;;;;3.83;3.53;;;;;;;20.83;60.66;95093.94;5053324;28;20508;-79
2022/07/21 01:36:09;;;;;;;4.30;4.00;;;;;;;20.79;60.35;95100.66;5053040;28;20504;-78
2022/07/21 01:41:32;;;;;;;4.33;3.93;;;;;;;20.65;60.92;95081.84;5052966;28;20433;-79
2022/07/21 01:44:01;;;;;;;5.00;3.60;;;;;;;20.56;61.09;95093.63;5052730;28;20790;-80
2022/07/21 01:46:29;;;;;;;4.10;3.80;;;;;;;20.55;61.02;95088.50;5052664;28;20486;-81
2022/07/21 01:48:56;;;;;;;5.10;4.60;;;;;;;20.53;61.45;95088.69;5052727;28;20569;-79
2022/07/21 01:51:23;;;;;;;5.07;4.67;;;;;;;20.49;61.48;95087.38;5052966;28;20459;-80
2022/07/21 01:53:51;;;;;;;4.50;4.20;;;;;;;20.49;61.76;95078.53;5052534;28;20442;-81
2022/07/21 01:56:20;;;;;;;4.50;4.13;;;;;;;20.67;61.54;95094.97;5052214;28;20761;-81
2022/07/21 01:58:47;;;;;;;4.23;3.83;;;;;;;20.80;61.45;95089.78;5053550;28;20879;-81
2022/07/21 02:01:16;;;;;;;4.27;3.97;;;;;;;20.93;61.22;95089.94;5053725;28;20774;-81
2022/07/21 02:03:43;;;;;;;5.37;4.87;;;;;;;21.03;61.13;95090.47;5018980;28;20870;-80
2022/07/21 02:06:11;;;;;;;5.17;4.30;;;;;;;21.13;60.50;95092.84;5054205;28;20456;-80
2022/07/21 02:08:38;;;;;;;5.37;4.13;;;;;;;21.13;60.23;95087.50;5053543;28;20489;-80
2022/07/21 02:11:07;;;;;;;4.90;4.50;;;;;;;21.09;59.92;95086.19;5053576;28;20445;-80
2022/07/21 02:13:34;;;;;;;4.60;4.20;;;;;;;21.10;60.26;95093.19;5054604;28;20753;-79
2022/07/21 02:16:01;;;;;;;6.57;4.13;;;;;;;21.07;59.68;95090.91;5054095;28;20449;-80
2022/07/21 02:18:28;;;;;;;4.53;4.17;;;;;;;21.03;59.74;95090.47;5053899;28;20448;-81
2022/07/21 02:20:55;;;;;;;5.00;4.53;;;;;;;20.99;60.25;95083.84;5053407;28;20446;-80
2022/07/21 02:23:22;;;;;;;4.80;4.40;;;;;;;20.98;60.40;95092.03;5053612;28;20899;-80
2022/07/21 02:25:49;;;;;;;4.53;4.13;;;;;;;20.97;60.43;95088.56;5053560;28;20450;-81
2022/07/21 02:28:18;;;;;;;4.30;4.00;;;;;;;20.95;60.42;95095.91;5034742;28;20511;-80
2022/07/21 02:30:45;;;;;;;5.20;4.80;;;;;;;20.88;60.42;95095.03;5054039;28;20848;-80
2022/07/21 02:33:12;;;;;;;6.00;4.97;;;;;;;20.84;59.93;95096.44;5053212;28;20786;-80
2022/07/21 02:35:40;;;;;;;4.57;4.27;;;;;;;20.75;60.07;95088.72;5053179;28;20452;-79
2022/07/21 02:38:07;;;;;;;5.80;4.43;;;;;;;20.61;60.15;95085.06;5053471;28;20825;-80
2022/07/21 02:40:34;;;;;;;5.63;4.00;;;;;;;20.48;61.24;95084.88;5052110;28;20453;-80
2022/07/21 02:43:02;;;;;;;4.83;4.43;;;;;;;20.48;60.81;95090.22;5052298;28;20452;-80
2022/07/21 02:45:30;;;;;;;5.33;4.77;;;;;;;20.38;61.13;95085.97;5052404;28;20437;-80
2022/07/21 02:47:59;;;;;;;10.40;4.47;;;;;;;20.18;61.91;95068.06;5051741;28;20477;-80
2022/07/21 02:50:28;;;;;;;5.03;4.43;;;;;;;20.14;62.21;95085.44;5051608;28;20984;-80
2022/07/21 02:52:56;;;;;;;8.60;4.00;;;;;;;20.24;62.59;95089.50;5051945;28;20445;-79
2022/07/21 02:55:23;;;;;;;4.73;4.30;;;;;;;20.27;62.52;95086.47;5052021;28;20445;-80
2022/07/21 02:57:50;;;;;;;5.30;4.50;;;;;;;20.30;61.67;95088.75;5051580;28;20449;-81
2022/07/21 03:00:17;;;;;;;4.47;4.07;;;;;;;20.36;61.92;95090.69;5051594;28;20827;-81
2022/07/21 03:02:45;;;;;;;5.30;4.80;;;;;;;20.41;61.42;95100.81;5051725;28;20449;-79
2022/07/21 03:05:12;;;;;;;4.30;4.00;;;;;;;20.44;61.72;95092.44;5051995;28;20456;-81
2022/07/21 03:07:39;;;;;;;4.40;4.00;;;;;;;20.50;62.81;95090.84;5052960;28;20456;-80
2022/07/21 03:10:06;;;;;;;5.30;4.80;;;;;;;20.54;62.46;95076.16;5057187;28;20485;-80
2022/07/21 03:12:33;;;;;;;5.47;4.97;;;;;;;20.63;61.48;95091.88;5057261;28;20449;-78
2022/07/21 03:15:00;;;;;;;4.50;4.20;;;;;;;20.67;61.56;95094.97;5057027;28;20442;-80
2022/07/21 03:17:27;;;;;;;5.10;4.60;;;;;;;20.69;61.15;95087.63;5038069;28;20445;-80
2022/07/21 03:19:55;;;;;;;11.53;4.87;;;;;;;20.76;61.04;95091.19;5057356;28;20456;-81
2022/07/21 03:22:22;;;;;;;4.47;4.07;;;;;;;20.78;60.68;95089.16;5057379;28;20437;-80
2022/07/21 03:24:50;;;;;;;4.60;4.20;;;;;;;20.83;60.84;95094.78;5056956;28;20441;-80
2022/07/21 03:27:17;;;;;;;8.40;4.97;;;;;;;20.79;61.10;95101.47;5056994;28;20436;-80
2022/07/21 03:29:44;;;;;;;5.73;5.23;;;;;;;20.65;62.17;95099.69;5056896;28;20992;-79
2022/07/21 03:32:11;;;;;;;6.90;5.10;;;;;;;20.63;62.75;95104.38;5056837;28;20441;-81
2022/07/21 03:34:38;;;;;;;5.20;4.70;;;;;;;20.68;62.66;95101.97;5057125;28;20461;-81
2022/07/21 03:37:06;;;;;;;7.83;5.07;;;;;;;20.72;62.84;95103.25;5056513;28;20955;-80
2022/07/21 03:39:33;;;;;;;8.23;6.10;;;;;;;20.92;62.51;95104.31;5056711;28;20460;-80
2022/07/21 03:42:00;;;;;;;12.00;5.87;;;;;;;21.02;61.64;95101.31;5056629;28;20441;-81
2022/07/21 03:44:27;;;;;;;9.83;5.87;;;;;;;21.06;61.13;95112.44;5038003;28;20452;-80
2022/07/21 03:46:53;;;;;;;9.03;5.60;;;;;;;20.97;60.95;95109.91;5056290;28;20469;-80
2022/07/21 03:49:20;;;;;;;7.97;6.00;;;;;;;20.90;61.10;95111.69;5056861;28;20507;-80
2022/07/21 03:51:47;;;;;;;10.67;5.93;;;;;;;20.83;61.53;95110.78;5056733;28;20761;-79
2022/07/21 03:54:15;;;;;;;18.20;6.40;;;;;;;21.01;61.81;95116.50;5021605;28;20460;-79
2022/07/21 03:56:42;;;;;;;6.37;5.73;;;;;;;21.31;60.81;95111.94;5037899;28;20469;-80
2022/07/21 03:59:09;;;;;;;8.60;5.33;;;;;;;21.64;59.49;95116.72;5021352;28;20452;-80
2022/07/21 04:01:36;;;;;;;6.60;5.00;;;;;;;21.99;58.34;95116.81;5056627;28;20450;-79
2022/07/21 04:04:03;;;;;;;5.80;5.00;;;;;;;22.42;57.38;95115.69;5056160;28;20440;-80
2022/07/21 04:06:29;;;;;;;5.10;4.60;;;;;;;22.78;55.24;95115.44;5055883;28;20453;-80
2022/07/21 04:08:56;;;;;;;5.17;4.77;;;;;;;23.09;54.26;95111.47;5055960;28;20765;-81
2022/07/21 04:11:24;;;;;;;3.73;3.43;;;;;;;23.40;52.96;95117.09;5055392;28;20466;-80
2022/07/21 04:13:51;;;;;;;4.33;3.93;;;;;;;23.72;52.54;95120.06;5056227;28;20449;-80
2022/07/21 04:16:18;;;;;;;5.60;4.00;;;;;;;24.12;51.89;95112.00;5055799;28;20503;-81
2022/07/21 04:18:45;;;;;;;4.63;4.23;;;;;;;24.42;50.57;95110.53;5055135;28;20956;-79
2022/07/21 04:21:12;;;;;;;5.37;4.60;;;;;;;24.52;49.86;95110.09;5020687;28;20430;-81
2022/07/21 04:23:38;;;;;;;4.53;3.93;;;;;;;24.61;49.62;95109.66;5056082;28;20453;-82
2022/07/21 04:26:06;;;;;;;5.00;4.50;;;;;;;24.75;49.48;95114.97;5055385;28;20441;-80
2022/07/21 04:28:34;;;;;;;8.63;5.87;;;;;;;24.75;49.79;95118.47;5056290;28;20450;-80
2022/07/21 04:31:01;;;;;;;12.63;5.43;;;;;;;24.70;49.99;95112.94;5055698;28;20484;-80
2022/07/21 04:33:27;;;;;;;11.23;5.90;;;;;;;24.80;50.05;95117.84;5056028;28;20461;-80
2022/07/21 04:35:54;;;;;;;8.20;5.73;;;;;;;24.69;49.73;95117.47;5055533;28;20861;-80
2022/07/21 04:38:21;;;;;;;10.90;4.80;;;;;;;24.72;50.30;95116.22;5055695;28;20442;-81
2022/07/21 04:40:48;;;;;;;14.57;4.50;;;;;;;24.84;49.19;95117.19;5055585;28;20434;-81
2022/07/21 04:43:15;;;;;;;5.97;4.70;;;;;;;24.99;49.16;95119.66;5055519;28;20437;-79
2022/07/21 04:45:43;;;;;;;5.00;4.50;;;;;;;25.10;48.18;95129.72;5054964;28;20461;-78
2022/07/21 04:48:09;;;;;;;7.30;4.97;;;;;;;25.01;49.11;95128.31;5055386;28;20497;-83
2022/07/21 04:50:36;;;;;;;8.57;5.40;;;;;;;25.10;49.52;95123.53;5055518;28;20485;-81
2022/07/21 04:53:04;;;;;;;8.50;5.97;;;;;;;25.19;49.21;95123.09;5055324;28;20457;-81
2022/07/21 04:55:31;;;;;;;5.23;4.70;;;;;;;25.33;49.24;95130.03;5020502;28;20515;-80
2022/07/21 04:57:58;;;;;;;4.97;4.57;;;;;;;25.23;47.66;95135.03;5055489;28;20433;-80
2022/07/21 05:00:26;;;;;;;7.40;4.10;;;;;;;25.38;45.95;95126.69;5055380;28;20446;-79
2022/07/21 05:02:55;;;;;;;8.10;4.90;;;;;;;25.47;46.22;95138.84;5055126;28;20536;-81
2022/07/21 05:05:23;;;;;;;11.43;5.47;;;;;;;25.57;45.66;95135.66;5054840;28;20897;-80
2022/07/21 05:07:50;;;;;;;9.43;4.97;;;;;;;25.91;46.54;95137.09;5072154;28;20453;-80
2022/07/21 05:10:21;;;;;;;14.13;5.77;;;;;;;26.13;45.42;95140.25;5065901;28;21041;-78
2022/07/21 05:12:47;;;;;;;7.00;5.30;;;;;;;26.30;44.47;95133.25;5067011;28;20471;-81
2022/07/21 05:15:15;;;;;;;14.83;5.40;;;;;;;26.54;44.80;95127.03;5056508;28;20805;-82
2022/07/21 05:17:42;;;;;;;9.63;5.90;;;;;;;26.64;44.00;95131.09;5068911;28;20461;-83
2022/07/21 05:20:11;;;;;;;8.20;5.70;;;;;;;26.79;43.74;95123.47;5026255;28;20451;-79
2022/07/21 05:22:39;;;;;;;8.73;4.60;;;;;;;26.62;43.82;95128.63;5051515;28;20445;-79
2022/07/21 05:25:07;;;;;;;10.30;4.93;;;;;;;26.74;44.02;95120.63;5065910;28;20459;-79
2022/07/21 05:27:34;;;;;;;8.20;5.63;;;;;;;26.98;44.78;95118.88;5018842;28;20966;-79
2022/07/21 05:30:01;;;;;;;8.20;5.53;;;;;;;27.22;42.57;95128.78;5053582;28;20489;-78
2022/07/21 05:32:28;;;;;;;6.70;5.50;;;;;;;27.29;42.41;95124.09;5050905;28;20466;-76
2022/07/21 05:34:55;;;;;;;10.23;4.90;;;;;;;27.50;43.35;95117.41;5053671;28;20473;-78
2022/07/21 05:37:23;;;;;;;11.13;5.10;;;;;;;27.75;42.38;95128.03;5052825;28;21306;-78
2022/07/21 05:39:50;;;;;;;8.00;4.50;;;;;;;27.97;42.57;95131.00;5053128;28;20453;-79
2022/07/21 05:42:17;;;;;;;8.20;4.40;;;;;;;28.24;41.92;95134.94;5052434;28;20465;-79
2022/07/21 05:44:44;;;;;;;4.73;4.33;;;;;;;28.49;42.05;95134.72;5051849;28;20503;-79
2022/07/21 05:47:11;;;;;;;5.10;4.53;;;;;;;28.70;41.40;95136.00;5051876;28;20994;-78
2022/07/21 05:49:38;;;;;;;9.10;5.07;;;;;;;28.85;41.85;95124.72;5052864;28;20535;-79
2022/07/21 05:52:05;;;;;;;4.97;4.33;;;;;;;28.98;40.63;95127.19;5053343;28;20445;-78
2022/07/21 05:54:33;;;;;;;4.70;4.30;;;;;;;28.98;40.22;95136.13;5053085;28;20449;-78
2022/07/21 05:57:02;;;;;;;6.23;4.80;;;;;;;29.12;41.26;95127.72;5053217;28;20928;-76
2022/07/21 05:59:29;;;;;;;9.60;4.57;;;;;;;29.03;39.57;95132.69;5051197;28;20532;-78
2022/07/21 06:01:55;;;;;;;7.03;5.50;;;;;;;28.87;40.47;95130.72;5053493;28;20449;-78
2022/07/21 06:04:22;;;;;;;7.93;4.80;;;;;;;28.89;40.68;95128.59;5053007;28;20457;-77
2022/07/21 06:06:49;;;;;;;8.33;5.60;;;;;;;28.50;40.88;95127.44;5053155;28;20445;-79
2022/07/21 06:09:16;;;;;;;7.37;4.47;;;;;;;28.43;42.60;95126.75;5052914;28;20457;-77
2022/07/21 06:11:44;;;;;;;8.50;5.30;;;;;;;28.56;42.90;95121.91;5053011;28;21101;-78
2022/07/21 06:14:11;;;;;;;10.63;4.40;;;;;;;28.64;41.79;95131.56;5052755;28;20446;-78
2022/07/21 06:16:38;;;;;;;5.00;4.60;;;;;;;28.82;41.61;95117.91;5053189;28;20433;-78
2022/07/21 06:19:06;;;;;;;12.60;4.90;;;;;;;28.93;40.78;95127.91;5053149;28;20536;-79
2022/07/21 06:21:33;;;;;;;8.13;5.60;;;;;;;28.96;41.05;95126.59;5052908;28;20930;-79
2022/07/21 06:24:00;;;;;;;6.17;4.37;;;;;;;29.11;40.50;95126.09;5052343;28;20454;-79
2022/07/21 06:26:27;;;;;;;7.60;5.47;;;;;;;28.95;42.07;95120.38;5052799;28;21110;-78
2022/07/21 06:28:55;;;;;;;6.40;4.70;;;;;;;28.66;42.67;95124.03;5052993;28;20437;-78
2022/07/21 06:31:22;;;;;;;5.40;4.90;;;;;;;28.30;42.22;95117.00;5053029;28;20488;-77
2022/07/21 06:33:49;;;;;;;6.93;5.03;;;;;;;28.49;42.77;95117.72;5052653;28;20453;-79
2022/07/21 06:36:16;;;;;;;5.97;4.53;;;;;;;28.54;42.15;95110.53;5052688;28;20473;-79
2022/07/21 06:38:44;;;;;;;10.57;5.13;;;;;;;28.54;41.70;95115.13;5052528;28;20516;-78
2022/07/21 06:41:11;;;;;;;8.53;5.10;;;;;;;28.75;41.46;95108.28;5052560;28;20545;-78
2022/07/21 06:43:38;;;;;;;5.23;4.63;;;;;;;28.79;40.58;95110.28;5052431;28;20453;-79
2022/07/21 06:46:06;;;;;;;7.03;5.03;;;;;;;28.91;41.28;95111.13;5052307;28;20484;-78
2022/07/21 06:48:33;;;;;;;5.20;4.70;;;;;;;29.05;41.85;95110.84;5052132;28;20779;-80
2022/07/21 06:51:00;;;;;;;6.80;5.60;;;;;;;29.27;41.25;95109.13;5017566;28;20486;-78
2022/07/21 06:53:27;;;;;;;4.70;4.30;;;;;;;29.43;41.41;95112.91;5052347;28;20494;-78
2022/07/21 06:55:54;;;;;;;5.67;5.10;;;;;;;29.44;41.47;95114.56;5051536;28;20450;-77
2022/07/21 06:58:24;;;;;;;6.80;5.50;;;;;;;29.65;41.19;95099.56;5051640;28;20927;-79
2022/07/21 07:00:52;;;;;;;7.77;5.43;;;;;;;29.85;40.02;95105.34;5052005;28;20499;-79
2022/07/21 07:03:22;;;;;;;11.50;4.50;;;;;;;30.07;40.29;95106.28;5052406;28;20452;-79
2022/07/21 07:05:49;;;;;;;6.97;4.97;;;;;;;30.23;40.22;95101.91;5052349;28;20454;-77
2022/07/21 07:08:16;;;;;;;5.63;5.03;;;;;;;30.08;39.61;95094.41;5052731;28;20457;-79
2022/07/21 07:10:43;;;;;;;13.13;5.50;;;;;;;30.33;38.17;95098.53;5052299;28;20833;-80
2022/07/21 07:13:11;;;;;;;6.13;5.10;;;;;;;30.48;39.92;95096.06;5051641;28;20437;-78
2022/07/21 07:15:38;;;;;;;7.73;5.30;;;;;;;30.57;38.94;95099.97;5051666;28;20817;-79
2022/07/21 07:18:05;;;;;;;13.23;5.20;;;;;;;30.76;39.72;95093.25;5052229;28;20450;-79
2022/07/21 07:20:34;;;;;;;5.67;4.67;;;;;;;30.97;39.69;95091.63;5051051;28;20450;-79
2022/07/21 07:23:00;;;;;;;12.07;5.03;;;;;;;30.81;38.06;95087.88;5052544;28;20838;-79
2022/07/21 07:25:27;;;;;;;5.93;4.53;;;;;;;30.99;37.39;95088.66;5052736;28;20507;-83
2022/07/21 07:27:56;;;;;;;14.27;5.73;;;;;;;30.86;39.36;95080.88;5051588;28;20453;-83
2022/07/21 07:30:24;;;;;;;7.07;5.17;;;;;;;30.81;39.81;95079.75;5051745;28;20576;-84
2022/07/21 07:32:51;;;;;;;9.80;5.23;;;;;;;30.87;38.88;95085.22;5051883;28;20841;-82
2022/07/21 07:35:19;;;;;;;9.40;5.50;;;;;;;30.95;37.54;95076.69;5052175;28;20445;-80
2022/07/21 07:37:47;;;;;;;9.27;5.07;;;;;;;31.00;38.38;95080.28;5052356;28;20434;-83
2022/07/21 07:40:17;;;;;;;6.43;5.80;;;;;;;30.74;38.53;95064.75;5051863;28;20461;-85
2022/07/21 07:42:44;;;;;;;10.57;5.70;;;;;;;30.93;37.87;95059.81;5052627;28;20449;-83
2022/07/21 07:45:12;;;;;;;8.70;5.70;;;;;;;30.99;37.25;95073.22;5052406;28;20446;-84
2022/07/21 07:47:39;;;;;;;9.73;5.77;;;;;;;31.27;39.13;95074.91;5051841;28;20485;-83
2022/07/21 07:50:09;;;;;;;18.37;6.20;;;;;;;31.09;38.00;95067.06;5052151;28;20960;-82
2022/07/21 07:52:36;;;;;;;8.63;5.60;;;;;;;31.22;39.08;95066.69;5033952;28;20500;-83
2022/07/21 07:55:07;;;;;;;7.67;4.70;;;;;;;31.48;37.10;95062.38;5054184;28;20454;-84
2022/07/21 07:57:35;;;;;;;5.40;4.90;;;;;;;31.76;35.22;95061.31;5055014;28;20519;-80
2022/07/21 08:00:02;;;;;;;9.33;4.57;;;;;;;32.07;36.09;95053.41;5055226;28;20450;-83
2022/07/21 08:02:28;;;;;;;7.40;4.83;;;;;;;32.21;34.53;95052.72;5055643;28;20485;-79
2022/07/21 08:04:55;;;;;;;4.80;4.37;;;;;;;32.15;35.01;95042.09;5055418;28;20446;-83
2022/07/21 08:07:22;;;;;;;6.47;5.17;;;;;;;31.77;34.10;95045.84;5055950;28;20449;-81
2022/07/21 08:09:49;;;;;;;9.67;4.70;;;;;;;31.71;34.96;95039.56;5037176;28;20453;-80
2022/07/21 08:12:17;;;;;;;5.43;4.80;;;;;;;31.64;34.09;95044.34;5055749;28;20496;-84
2022/07/21 08:14:44;;;;;;;5.77;4.80;;;;;;;31.73;34.38;95034.69;5013458;28;20453;-83
2022/07/21 08:17:11;;;;;;;5.13;4.63;;;;;;;31.98;34.75;95032.19;4980252;28;20467;-82
2022/07/21 08:19:37;;;;;;;6.00;4.57;;;;;;;32.02;34.37;95036.00;5013571;28;20456;-83
2022/07/21 08:22:04;;;;;;;7.50;4.50;;;;;;;31.98;34.17;95036.78;4980420;28;20493;-83
2022/07/21 08:24:31;;;;;;;5.17;4.70;;;;;;;32.02;33.48;95027.84;5013611;28;20494;-81
2022/07/21 08:26:58;;;;;;;7.07;3.87;;;;;;;31.91;33.24;95031.59;5013050;28;20454;-82
2022/07/21 08:29:26;;;;;;;3.80;3.53;;;;;;;31.84;33.30;95025.56;5012310;28;20506;-83
2022/07/21 08:31:53;;;;;;;4.60;4.20;;;;;;;31.78;34.98;95026.56;4963459;28;20491;-81
2022/07/21 08:34:19;;;;;;;8.37;4.50;;;;;;;31.93;34.19;95024.00;5054315;28;20457;-84
2022/07/21 08:36:46;;;;;;;7.13;3.93;;;;;;;31.88;33.93;95026.69;5055524;28;20449;-83
2022/07/21 08:39:13;;;;;;;5.87;5.27;;;;;;;32.00;33.75;95021.06;5055179;28;20449;-84
2022/07/21 08:41:41;;;;;;;4.10;3.80;;;;;;;32.05;33.64;95021.91;5055389;28;20453;-82
2022/07/21 08:44:10;;;;;;;6.70;5.17;;;;;;;32.20;33.12;95018.47;5055110;28;20438;-82
2022/07/21 08:46:41;;;;;;;6.30;4.67;;;;;;;32.32;33.57;95024.56;5052955;28;20564;-84
2022/07/21 08:49:10;;;;;;;7.90;5.17;;;;;;;32.47;32.84;95012.16;5053610;28;20484;-83
2022/07/21 08:51:37;;;;;;;4.23;3.83;;;;;;;32.35;32.87;95025.94;5034871;28;20474;-84
2022/07/21 08:54:05;;;;;;;6.60;3.80;;;;;;;32.42;33.61;95010.22;5052978;28;20446;-81
2022/07/21 08:56:32;;;;;;;10.20;6.20;;;;;;;32.55;32.92;95017.91;5053207;28;20455;-81
2022/07/21 08:58:58;;;;;;;5.47;4.00;;;;;;;32.47;33.21;95010.25;5052420;28;20473;-82
2022/07/21 09:01:26;;;;;;;7.03;5.50;;;;;;;32.48;32.73;95009.16;5052343;28;20457;-83
2022/07/21 09:03:54;;;;;;;5.33;4.27;;;;;;;32.52;32.26;94999.41;5016700;28;20438;-81
2022/07/21 09:06:21;;;;;;;6.70;4.13;;;;;;;32.68;32.67;94997.59;5052093;28;20445;-83
2022/07/21 09:08:50;;;;;;;5.10;4.27;;;;;;;32.78;31.71;94991.38;5032890;28;20449;-82
2022/07/21 09:11:22;;;;;;;9.67;5.10;;;;;;;32.88;31.86;94997.69;5051646;28;20503;-84
2022/07/21 09:13:52;;;;;;;4.50;4.20;;;;;;;32.90;31.94;94990.06;5052638;28;20457;-84
2022/07/21 09:16:36;;;;;;;5.77;4.03;;;;;;;33.04;31.92;94984.97;5053279;28;20485;-83
2022/07/21 09:19:05;;;;;;;10.63;5.90;;;;;;;33.12;31.39;94987.16;5052625;28;20445;-82
2022/07/21 09:21:33;;;;;;;4.20;3.90;;;;;;;33.03;31.26;94998.81;5053126;28;20480;-83
2022/07/21 09:24:16;;;;;;;4.50;3.53;;;;;;;32.94;31.78;94990.34;5052844;28;21031;-81
2022/07/21 09:27:09;;;;;;;11.73;4.07;;;;;;;33.09;31.32;94987.69;5053066;28;20468;-82
2022/07/21 09:29:45;;;;;;;5.40;4.80;;;;;;;33.19;30.65;94987.69;5052911;28;20446;-82
2022/07/21 09:32:21;;;;;;;8.70;4.60;;;;;;;33.19;31.01;94984.16;5052894;28;20489;-82
2022/07/21 09:34:51;;;;;;;8.30;5.40;;;;;;;33.22;31.55;94976.28;5052896;28;20468;-83
2022/07/21 09:37:19;;;;;;;6.10;4.57;;;;;;;33.04;30.84;94984.97;5051850;28;20442;-84
2022/07/21 09:39:47;;;;;;;6.80;4.30;;;;;;;32.87;30.08;94981.63;5052909;28;20441;-83
2022/07/21 09:42:17;;;;;;;5.00;4.60;;;;;;;32.63;30.25;94978.53;5052805;28;20450;-82
2022/07/21 09:44:45;;;;;;;9.53;4.43;;;;;;;32.59;31.12;94977.41;5052838;28;20450;-83
2022/07/21 09:47:17;;;;;;;4.50;4.20;;;;;;;32.64;31.23;94982.88;5052497;28;20478;-83
2022/07/21 09:49:47;;;;;;;4.63;4.00;;;;;;;32.71;31.13;94969.88;5053203;28;20461;-83
2022/07/21 09:52:29;;;;;;;4.33;3.83;;;;;;;32.36;30.33;94981.38;5052509;28;20878;-84
2022/07/21 09:54:57;;;;;;;12.63;4.43;;;;;;;32.28;29.94;94980.00;5052262;28;20917;-82
2022/07/21 09:57:24;;;;;;;6.30;4.10;;;;;;;32.16;30.57;94978.53;5054144;28;20438;-87
2022/07/21 09:59:52;;;;;;;7.73;4.20;;;;;;;32.10;32.09;94974.16;5053561;28;20452;-83
2022/07/21 10:02:21;;;;;;;4.40;4.10;;;;;;;32.16;31.29;94973.13;5053543;28;20442;-83
2022/07/21 10:04:55;;;;;;;4.27;3.87;;;;;;;32.20;32.58;94968.78;5053133;28;20442;-82
2022/07/21 10:07:23;;;;;;;5.80;4.10;;;;;;;32.23;32.24;94960.09;5052720;28;20453;-81
2022/07/21 10:09:52;;;;;;;4.23;3.40;;;;;;;32.21;31.58;94965.81;5017728;28;20503;-82
2022/07/21 10:12:18;;;;;;;5.83;4.20;;;;;;;32.14;32.57;94954.38;5052832;28;20492;-82
2022/07/21 10:14:47;;;;;;;3.70;3.40;;;;;;;32.19;31.79;94959.00;5017714;28;20449;-82
2022/07/21 10:17:14;;;;;;;4.60;4.20;;;;;;;32.14;31.92;94959.78;5052892;28;21006;-83
2022/07/21 10:19:49;;;;;;;4.07;3.73;;;;;;;32.09;31.42;94946.16;5052320;28;20842;-80
2022/07/21 10:22:31;;;;;;;4.23;3.83;;;;;;;32.05;30.63;94945.88;5052310;28;20450;-82
2022/07/21 10:25:01;;;;;;;5.03;3.70;;;;;;;31.93;31.20;94948.00;5052854;28;20450;-82
2022/07/21 10:27:28;;;;;;;5.43;3.73;;;;;;;31.98;31.57;94958.06;5052706;28;20438;-85
2022/07/21 10:30:00;;;;;;;4.20;3.80;;;;;;;31.93;30.26;94956.13;5053343;28;20450;-85
2022/07/21 10:32:33;;;;;;;3.43;3.23;;;;;;;32.03;29.81;94950.75;5053165;28;20577;-82
2022/07/21 10:35:02;;;;;;;5.10;4.60;;;;;;;32.02;30.69;94938.25;5053149;28;20456;-80
2022/07/21 10:37:47;;;;;;;4.10;3.80;;;;;;;32.12;31.57;94939.41;5052727;28;20457;-79
2022/07/21 10:40:37;;;;;;;3.77;3.47;;;;;;;31.99;30.01;94941.50;5052352;28;20455;-80
2022/07/21 10:43:39;;;;;;;4.73;4.33;;;;;;;32.05;30.72;94943.16;5052872;28;20457;-80
2022/07/21 10:46:37;;;;;;;4.40;4.00;;;;;;;32.10;30.39;94936.16;5052703;28;20512;-80
2022/07/21 10:49:06;;;;;;;5.20;4.70;;;;;;;32.04;31.65;94933.38;5052529;28;20450;-80
2022/07/21 10:51:35;;;;;;;4.37;3.97;;;;;;;32.11;32.18;94933.16;5052712;28;20489;-81
2022/07/21 10:54:22;;;;;;;3.97;3.53;;;;;;;32.02;30.72;94927.41;5052695;28;20528;-79
2022/07/21 10:57:27;;;;;;;5.50;3.80;;;;;;;32.03;31.32;94915.47;5052518;28;20488;-79
2022/07/21 11:00:27;;;;;;;4.60;4.30;;;;;;;32.09;32.27;94912.75;5052625;28;20457;-80
2022/07/21 11:02:56;;;;;;;9.13;4.43;;;;;;;32.11;31.96;94910.63;5052579;28;20457;-79
2022/07/21 11:05:25;;;;;;;6.80;4.47;;;;;;;32.05;31.10;94921.44;5052184;28;20449;-79
2022/07/21 11:08:15;;;;;;;4.80;4.37;;;;;;;32.05;30.68;94907.06;5051886;28;20469;-80
2022/07/21 11:10:44;;;;;;;4.20;3.90;;;;;;;32.00;30.54;94896.16;5033396;28;20925;-80
2022/07/21 11:13:14;;;;;;;5.53;3.73;;;;;;;31.98;30.57;94901.88;5052314;28;20489;-80
2022/07/21 11:15:50;;;;;;;4.80;4.07;;;;;;;32.04;30.58;94899.97;5052456;28;20445;-79
2022/07/21 11:18:21;;;;;;;5.40;3.83;;;;;;;31.94;32.54;94886.38;5052215;28;20473;-80
2022/07/21 11:21:18;;;;;;;4.30;3.90;;;;;;;32.07;31.92;94885.88;5051636;28;20457;-81
2022/07/21 11:23:46;;;;;;;4.13;3.73;;;;;;;32.18;31.85;94881.34;4990524;28;20451;-79
2022/07/21 11:26:15;;;;;;;4.93;4.40;;;;;;;32.18;30.34;94887.59;4941889;28;20495;-80
2022/07/21 11:28:44;;;;;;;7.87;4.57;;;;;;;32.18;31.39;94894.91;4990647;28;20441;-80
2022/07/21 11:31:14;;;;;;;5.23;3.60;;;;;;;32.23;30.96;94892.22;4994525;28;20449;-79
2022/07/21 11:33:44;;;;;;;4.37;4.07;;;;;;;32.29;31.32;94888.47;4994160;28;20527;-80
2022/07/21 11:36:22;;;;;;;4.07;3.77;;;;;;;32.41;31.14;94889.06;4994382;28;20492;-80
2022/07/21 11:39:01;;;;;;;4.03;3.50;;;;;;;32.50;30.49;94883.91;4994367;28;20486;-80
2022/07/21 11:41:28;;;;;;;4.30;3.90;;;;;;;32.57;31.05;94881.75;4994384;28;20459;-80